sensor_id;sensor_type;location;lat;lon;timestamp;pressure;altitude;pressure_sealevel;temperature
47484;BMP280;54076;50.322;18.650;2022-11-11T00:01:41;100530.89;;;8.40
47484;BMP280;54076;50.322;18.650;2022-11-11T00:06:42;100534.27;;;8.51
47484;BMP280;54076;50.322;18.650;2022-11-11T00:11:43;100538.85;;;8.63
47484;BMP280;54076;50.322;18.650;2022-11-11T00:16:44;100544.88;;;8.65
47484;BMP280;54076;50.322;18.650;2022-11-11T00:22:03;100548.98;;;8.84
47484;BMP280;54076;50.322;18.650;2022-11-11T00:27:23;100555.58;;;8.84
47484;BMP280;54076;50.322;18.650;2022-11-11T00:32:24;100558.45;;;8.99
47484;BMP280;54076;50.322;18.650;2022-11-11T00:37:34;100567.46;;;9.01
47484;BMP280;54076;50.322;18.650;2022-11-11T00:42:35;100567.45;;;9.01
47484;BMP280;54076;50.322;18.650;2022-11-11T00:47:37;100569.88;;;8.97
47484;BMP280;54076;50.322;18.650;2022-11-11T00:52:57;100562.48;;;8.96
47484;BMP280;54076;50.322;18.650;2022-11-11T00:57:58;100560.54;;;9.01
47484;BMP280;54076;50.322;18.650;2022-11-11T01:02:59;100561.96;;;8.98
47484;BMP280;54076;50.322;18.650;2022-11-11T01:08:00;100559.43;;;8.97
47484;BMP280;54076;50.322;18.650;2022-11-11T01:13:01;100551.95;;;9.12
47484;BMP280;54076;50.322;18.650;2022-11-11T01:18:14;100545.95;;;9.09
47484;BMP280;54076;50.322;18.650;2022-11-11T01:23:16;100537.67;;;8.98
47484;BMP280;54076;50.322;18.650;2022-11-11T01:28:17;100543.34;;;9.09
47484;BMP280;54076;50.322;18.650;2022-11-11T01:33:18;100544.89;;;9.13
47484;BMP280;54076;50.322;18.650;2022-11-11T01:38:19;100545.75;;;9.13
47484;BMP280;54076;50.322;18.650;2022-11-11T01:43:23;100549.29;;;9.21
47484;BMP280;54076;50.322;18.650;2022-11-11T01:48:32;100537.52;;;9.24
47484;BMP280;54076;50.322;18.650;2022-11-11T01:53:58;100544.29;;;9.28
47484;BMP280;54076;50.322;18.650;2022-11-11T01:59:07;100540.49;;;9.33
47484;BMP280;54076;50.322;18.650;2022-11-11T02:04:10;100542.73;;;9.27
47484;BMP280;54076;50.322;18.650;2022-11-11T02:09:30;100545.45;;;9.26
47484;BMP280;54076;50.322;18.650;2022-11-11T02:14:38;100555.06;;;9.30
47484;BMP280;54076;50.322;18.650;2022-11-11T02:19:59;100552.04;;;9.30
47484;BMP280;54076;50.322;18.650;2022-11-11T02:25:07;100558.33;;;9.44
47484;BMP280;54076;50.322;18.650;2022-11-11T02:30:10;100558.64;;;9.46
47484;BMP280;54076;50.322;18.650;2022-11-11T02:35:28;100563.94;;;9.41
47484;BMP280;54076;50.322;18.650;2022-11-11T02:40:43;100563.55;;;9.46
47484;BMP280;54076;50.322;18.650;2022-11-11T02:46:06;100570.04;;;9.45
47484;BMP280;54076;50.322;18.650;2022-11-11T02:51:07;100577.36;;;9.41
47484;BMP280;54076;50.322;18.650;2022-11-11T02:56:09;100567.92;;;9.27
47484;BMP280;54076;50.322;18.650;2022-11-11T03:01:10;100560.45;;;9.17
47484;BMP280;54076;50.322;18.650;2022-11-11T03:06:10;100550.00;;;9.08
47484;BMP280;54076;50.322;18.650;2022-11-11T03:11:12;100551.55;;;8.92
47484;BMP280;54076;50.322;18.650;2022-11-11T03:16:13;100553.74;;;8.78
47484;BMP280;54076;50.322;18.650;2022-11-11T03:21:34;100563.27;;;8.72
47484;BMP280;54076;50.322;18.650;2022-11-11T03:26:36;100576.08;;;8.67
47484;BMP280;54076;50.322;18.650;2022-11-11T03:31:37;100563.61;;;8.72
47484;BMP280;54076;50.322;18.650;2022-11-11T03:36:38;100560.33;;;8.72
47484;BMP280;54076;50.322;18.650;2022-11-11T03:41:58;100571.91;;;8.64
47484;BMP280;54076;50.322;18.650;2022-11-11T03:46:59;100568.65;;;8.53
47484;BMP280;54076;50.322;18.650;2022-11-11T03:52:00;100562.05;;;8.49
47484;BMP280;54076;50.322;18.650;2022-11-11T03:57:01;100553.88;;;8.33
47484;BMP280;54076;50.322;18.650;2022-11-11T04:02:21;100551.52;;;8.27
47484;BMP280;54076;50.322;18.650;2022-11-11T04:07:41;100547.78;;;8.30
47484;BMP280;54076;50.322;18.650;2022-11-11T04:13:01;100543.23;;;8.28
47484;BMP280;54076;50.322;18.650;2022-11-11T04:18:21;100549.60;;;8.21
47484;BMP280;54076;50.322;18.650;2022-11-11T04:23:42;100556.34;;;8.18
47484;BMP280;54076;50.322;18.650;2022-11-11T04:28:43;100554.77;;;8.23
47484;BMP280;54076;50.322;18.650;2022-11-11T04:34:03;100571.39;;;8.13
47484;BMP280;54076;50.322;18.650;2022-11-11T04:39:04;100586.09;;;8.07
47484;BMP280;54076;50.322;18.650;2022-11-11T04:44:23;100583.41;;;7.99
47484;BMP280;54076;50.322;18.650;2022-11-11T04:49:43;100587.60;;;8.00
47484;BMP280;54076;50.322;18.650;2022-11-11T04:54:44;100592.79;;;7.99
47484;BMP280;54076;50.322;18.650;2022-11-11T05:00:05;100598.98;;;7.98
47484;BMP280;54076;50.322;18.650;2022-11-11T05:05:06;100601.47;;;8.01
47484;BMP280;54076;50.322;18.650;2022-11-11T05:10:07;100606.14;;;8.06
47484;BMP280;54076;50.322;18.650;2022-11-11T05:15:09;100610.49;;;8.01
47484;BMP280;54076;50.322;18.650;2022-11-11T05:20:28;100612.27;;;8.00
47484;BMP280;54076;50.322;18.650;2022-11-11T05:25:48;100629.77;;;7.99
47484;BMP280;54076;50.322;18.650;2022-11-11T05:30:49;100654.41;;;8.07
47484;BMP280;54076;50.322;18.650;2022-11-11T05:35:50;100658.66;;;8.03
47484;BMP280;54076;50.322;18.650;2022-11-11T05:40:51;100654.02;;;7.92
47484;BMP280;54076;50.322;18.650;2022-11-11T05:45:54;100655.01;;;7.99
47484;BMP280;54076;50.322;18.650;2022-11-11T05:50:59;100643.30;;;7.94
47484;BMP280;54076;50.322;18.650;2022-11-11T05:56:00;100641.96;;;7.89
47484;BMP280;54076;50.322;18.650;2022-11-11T06:01:01;100655.06;;;7.91
47484;BMP280;54076;50.322;18.650;2022-11-11T06:06:02;100668.05;;;7.95
47484;BMP280;54076;50.322;18.650;2022-11-11T06:11:03;100661.52;;;8.04
47484;BMP280;54076;50.322;18.650;2022-11-11T06:16:05;100649.03;;;8.10
47484;BMP280;54076;50.322;18.650;2022-11-11T06:21:06;100654.42;;;8.21
47484;BMP280;54076;50.322;18.650;2022-11-11T06:26:10;100643.22;;;8.22
47484;BMP280;54076;50.322;18.650;2022-11-11T06:31:24;100646.04;;;8.34
47484;BMP280;54076;50.322;18.650;2022-11-11T06:36:26;100650.70;;;8.38
47484;BMP280;54076;50.322;18.650;2022-11-11T06:41:27;100641.60;;;8.49
47484;BMP280;54076;50.322;18.650;2022-11-11T06:46:28;100648.95;;;8.55
47484;BMP280;54076;50.322;18.650;2022-11-11T06:51:29;100655.66;;;8.68
47484;BMP280;54076;50.322;18.650;2022-11-11T06:56:30;100651.73;;;8.74
47484;BMP280;54076;50.322;18.650;2022-11-11T07:01:31;100652.73;;;9.08
47484;BMP280;54076;50.322;18.650;2022-11-11T07:06:32;100643.71;;;9.51
47484;BMP280;54076;50.322;18.650;2022-11-11T07:11:33;100647.60;;;9.56
47484;BMP280;54076;50.322;18.650;2022-11-11T07:16:34;100643.33;;;9.83
47484;BMP280;54076;50.322;18.650;2022-11-11T07:21:36;100652.29;;;9.45
47484;BMP280;54076;50.322;18.650;2022-11-11T07:26:37;100650.83;;;9.32
47484;BMP280;54076;50.322;18.650;2022-11-11T07:31:38;100653.61;;;9.30
47484;BMP280;54076;50.322;18.650;2022-11-11T07:36:39;100645.06;;;9.27
47484;BMP280;54076;50.322;18.650;2022-11-11T07:41:40;100646.86;;;9.27
47484;BMP280;54076;50.322;18.650;2022-11-11T07:46:41;100646.56;;;9.39
47484;BMP280;54076;50.322;18.650;2022-11-11T07:51:42;100638.64;;;9.44
47484;BMP280;54076;50.322;18.650;2022-11-11T07:56:43;100642.63;;;9.61
47484;BMP280;54076;50.322;18.650;2022-11-11T08:01:44;100627.98;;;9.83
47484;BMP280;54076;50.322;18.650;2022-11-11T08:06:45;100625.20;;;9.84
47484;BMP280;54076;50.322;18.650;2022-11-11T08:11:46;100620.78;;;10.03
47484;BMP280;54076;50.322;18.650;2022-11-11T08:17:06;100616.52;;;9.94
47484;BMP280;54076;50.322;18.650;2022-11-11T08:22:07;100611.15;;;10.22
47484;BMP280;54076;50.322;18.650;2022-11-11T08:27:08;100622.38;;;10.50
47484;BMP280;54076;50.322;18.650;2022-11-11T08:32:09;100626.81;;;10.62
47484;BMP280;54076;50.322;18.650;2022-11-11T08:37:11;100633.55;;;10.75
47484;BMP280;54076;50.322;18.650;2022-11-11T08:42:12;100632.13;;;10.92
47484;BMP280;54076;50.322;18.650;2022-11-11T08:47:13;100626.41;;;11.17
47484;BMP280;54076;50.322;18.650;2022-11-11T08:52:14;100635.05;;;11.44
47484;BMP280;54076;50.322;18.650;2022-11-11T08:57:16;100637.23;;;11.41
47484;BMP280;54076;50.322;18.650;2022-11-11T09:02:17;100636.04;;;11.73
47484;BMP280;54076;50.322;18.650;2022-11-11T09:07:18;100643.77;;;11.81
47484;BMP280;54076;50.322;18.650;2022-11-11T09:12:19;100646.48;;;11.84
47484;BMP280;54076;50.322;18.650;2022-11-11T09:17:20;100645.20;;;11.78
47484;BMP280;54076;50.322;18.650;2022-11-11T09:22:21;100658.33;;;11.83
47484;BMP280;54076;50.322;18.650;2022-11-11T09:27:23;100662.23;;;11.79
47484;BMP280;54076;50.322;18.650;2022-11-11T09:32:24;100666.91;;;11.88
47484;BMP280;54076;50.322;18.650;2022-11-11T09:37:26;100667.95;;;11.96
47484;BMP280;54076;50.322;18.650;2022-11-11T09:42:45;100663.35;;;12.22
47484;BMP280;54076;50.322;18.650;2022-11-11T09:48:23;100657.45;;;12.23
47484;BMP280;54076;50.322;18.650;2022-11-11T09:53:35;100648.34;;;12.37
47484;BMP280;54076;50.322;18.650;2022-11-11T09:58:48;100640.43;;;12.42
47484;BMP280;54076;50.322;18.650;2022-11-11T10:09:26;100660.29;;;12.53
47484;BMP280;54076;50.322;18.650;2022-11-11T10:14:36;100649.49;;;12.96
47484;BMP280;54076;50.322;18.650;2022-11-11T10:24:45;100646.64;;;13.46
47484;BMP280;54076;50.322;18.650;2022-11-11T10:29:50;100650.26;;;13.67
47484;BMP280;54076;50.322;18.650;2022-11-11T10:34:51;100637.40;;;14.41
47484;BMP280;54076;50.322;18.650;2022-11-11T10:40:09;100633.61;;;14.07
47484;BMP280;54076;50.322;18.650;2022-11-11T10:45:38;100630.89;;;13.78
47484;BMP280;54076;50.322;18.650;2022-11-11T10:50:43;100616.67;;;13.85
47484;BMP280;54076;50.322;18.650;2022-11-11T10:56:03;100616.36;;;13.72
47484;BMP280;54076;50.322;18.650;2022-11-11T11:01:10;100619.42;;;13.81
47484;BMP280;54076;50.322;18.650;2022-11-11T11:06:35;100617.91;;;13.68
47484;BMP280;54076;50.322;18.650;2022-11-11T11:18:08;100613.81;;;13.63
47484;BMP280;54076;50.322;18.650;2022-11-11T11:23:10;100617.80;;;14.70
47484;BMP280;54076;50.322;18.650;2022-11-11T11:28:12;100625.02;;;15.67
47484;BMP280;54076;50.322;18.650;2022-11-11T11:33:13;100617.55;;;15.48
47484;BMP280;54076;50.322;18.650;2022-11-11T11:38:14;100600.50;;;15.18
47484;BMP280;54076;50.322;18.650;2022-11-11T11:43:37;100597.95;;;15.45
47484;BMP280;54076;50.322;18.650;2022-11-11T11:59:47;100598.02;;;14.17
47484;BMP280;54076;50.322;18.650;2022-11-11T12:21:08;100585.50;;;14.04
47484;BMP280;54076;50.322;18.650;2022-11-11T12:26:51;100587.19;;;13.86
47484;BMP280;54076;50.322;18.650;2022-11-11T12:32:29;100578.48;;;13.94
47484;BMP280;54076;50.322;18.650;2022-11-11T13:04:55;100571.48;;;13.58
47484;BMP280;54076;50.322;18.650;2022-11-11T13:15:21;100574.72;;;13.39
47484;BMP280;54076;50.322;18.650;2022-11-11T13:25:47;100554.20;;;13.25
47484;BMP280;54076;50.322;18.650;2022-11-11T13:36:27;100569.73;;;13.32
47484;BMP280;54076;50.322;18.650;2022-11-11T13:41:39;100564.83;;;13.32
47484;BMP280;54076;50.322;18.650;2022-11-11T13:46:46;100566.81;;;13.32
47484;BMP280;54076;50.322;18.650;2022-11-11T13:51:56;100568.48;;;13.40
47484;BMP280;54076;50.322;18.650;2022-11-11T13:57:23;100571.73;;;13.34
47484;BMP280;54076;50.322;18.650;2022-11-11T14:17:49;100555.89;;;13.11
47484;BMP280;54076;50.322;18.650;2022-11-11T14:22:50;100552.40;;;12.97
47484;BMP280;54076;50.322;18.650;2022-11-11T14:27:51;100552.38;;;13.01
47484;BMP280;54076;50.322;18.650;2022-11-11T14:38:48;100562.02;;;12.94
47484;BMP280;54076;50.322;18.650;2022-11-11T14:43:51;100564.92;;;12.79
47484;BMP280;54076;50.322;18.650;2022-11-11T14:49:01;100568.73;;;12.80
47484;BMP280;54076;50.322;18.650;2022-11-11T14:54:05;100571.56;;;12.80
47484;BMP280;54076;50.322;18.650;2022-11-11T14:59:10;100565.46;;;12.68
47484;BMP280;54076;50.322;18.650;2022-11-11T15:04:14;100562.77;;;12.67
47484;BMP280;54076;50.322;18.650;2022-11-11T15:30:14;100567.05;;;12.12
47484;BMP280;54076;50.322;18.650;2022-11-11T15:35:41;100572.85;;;11.96
47484;BMP280;54076;50.322;18.650;2022-11-11T15:40:54;100576.86;;;11.90
47484;BMP280;54076;50.322;18.650;2022-11-11T15:46:03;100580.95;;;11.74
47484;BMP280;54076;50.322;18.650;2022-11-11T15:51:21;100583.10;;;11.67
47484;BMP280;54076;50.322;18.650;2022-11-11T15:56:29;100580.60;;;11.59
47484;BMP280;54076;50.322;18.650;2022-11-11T16:01:31;100589.61;;;11.47
47484;BMP280;54076;50.322;18.650;2022-11-11T16:06:34;100584.78;;;11.43
47484;BMP280;54076;50.322;18.650;2022-11-11T16:11:38;100591.77;;;11.42
47484;BMP280;54076;50.322;18.650;2022-11-11T16:16:40;100589.82;;;11.30
47484;BMP280;54076;50.322;18.650;2022-11-11T16:21:51;100593.57;;;11.27
47484;BMP280;54076;50.322;18.650;2022-11-11T16:26:55;100594.30;;;11.22
47484;BMP280;54076;50.322;18.650;2022-11-11T16:31:56;100587.46;;;11.31
47484;BMP280;54076;50.322;18.650;2022-11-11T16:42:15;100581.73;;;11.18
47484;BMP280;54076;50.322;18.650;2022-11-11T16:52:50;100584.98;;;11.15
47484;BMP280;54076;50.322;18.650;2022-11-11T16:57:52;100587.27;;;11.15
47484;BMP280;54076;50.322;18.650;2022-11-11T17:03:23;100593.33;;;11.18
47484;BMP280;54076;50.322;18.650;2022-11-11T17:13:32;100601.32;;;11.05
47484;BMP280;54076;50.322;18.650;2022-11-11T17:18:36;100608.34;;;11.08
47484;BMP280;54076;50.322;18.650;2022-11-11T17:23:38;100609.50;;;11.09
47484;BMP280;54076;50.322;18.650;2022-11-11T17:28:39;100613.72;;;11.02
47484;BMP280;54076;50.322;18.650;2022-11-11T17:33:39;100618.38;;;10.99
47484;BMP280;54076;50.322;18.650;2022-11-11T17:38:40;100619.59;;;10.94
47484;BMP280;54076;50.322;18.650;2022-11-11T17:43:41;100621.98;;;10.83
47484;BMP280;54076;50.322;18.650;2022-11-11T17:48:42;100626.83;;;10.71
47484;BMP280;54076;50.322;18.650;2022-11-11T17:53:43;100619.19;;;10.67
47484;BMP280;54076;50.322;18.650;2022-11-11T17:58:44;100616.20;;;10.58
47484;BMP280;54076;50.322;18.650;2022-11-11T18:03:46;100617.09;;;10.49
47484;BMP280;54076;50.322;18.650;2022-11-11T18:08:47;100615.03;;;10.49
47484;BMP280;54076;50.322;18.650;2022-11-11T18:13:48;100621.54;;;10.35
47484;BMP280;54076;50.322;18.650;2022-11-11T18:18:51;100627.11;;;10.34
47484;BMP280;54076;50.322;18.650;2022-11-11T18:23:54;100628.27;;;10.30
47484;BMP280;54076;50.322;18.650;2022-11-11T18:28:55;100628.78;;;10.15
47484;BMP280;54076;50.322;18.650;2022-11-11T18:33:56;100626.73;;;10.20
47484;BMP280;54076;50.322;18.650;2022-11-11T18:38:57;100629.08;;;10.17
47484;BMP280;54076;50.322;18.650;2022-11-11T18:43:58;100631.39;;;10.14
47484;BMP280;54076;50.322;18.650;2022-11-11T18:49:02;100634.70;;;9.88
47484;BMP280;54076;50.322;18.650;2022-11-11T18:54:05;100639.66;;;9.85
47484;BMP280;54076;50.322;18.650;2022-11-11T18:59:06;100643.38;;;9.86
47484;BMP280;54076;50.322;18.650;2022-11-11T19:04:09;100648.29;;;9.99
47484;BMP280;54076;50.322;18.650;2022-11-11T19:09:12;100644.70;;;9.93
47484;BMP280;54076;50.322;18.650;2022-11-11T19:14:14;100657.02;;;9.92
47484;BMP280;54076;50.322;18.650;2022-11-11T19:19:15;100658.61;;;9.86
47484;BMP280;54076;50.322;18.650;2022-11-11T19:24:17;100665.65;;;9.93
47484;BMP280;54076;50.322;18.650;2022-11-11T19:29:18;100665.59;;;9.86
47484;BMP280;54076;50.322;18.650;2022-11-11T19:34:19;100664.45;;;9.87
47484;BMP280;54076;50.322;18.650;2022-11-11T19:39:20;100669.42;;;9.82
47484;BMP280;54076;50.322;18.650;2022-11-11T19:44:21;100674.17;;;9.90
47484;BMP280;54076;50.322;18.650;2022-11-11T19:49:22;100682.52;;;9.86
47484;BMP280;54076;50.322;18.650;2022-11-11T19:54:23;100686.86;;;9.81
47484;BMP280;54076;50.322;18.650;2022-11-11T19:59:24;100691.89;;;9.81
47484;BMP280;54076;50.322;18.650;2022-11-11T20:04:28;100686.25;;;9.91
47484;BMP280;54076;50.322;18.650;2022-11-11T20:09:29;100687.77;;;9.89
47484;BMP280;54076;50.322;18.650;2022-11-11T20:14:31;100694.09;;;9.79
47484;BMP280;54076;50.322;18.650;2022-11-11T20:19:32;100699.80;;;9.91
47484;BMP280;54076;50.322;18.650;2022-11-11T20:24:34;100701.65;;;9.89
47484;BMP280;54076;50.322;18.650;2022-11-11T20:29:35;100697.83;;;9.83
47484;BMP280;54076;50.322;18.650;2022-11-11T20:34:36;100701.63;;;9.74
47484;BMP280;54076;50.322;18.650;2022-11-11T20:39:37;100697.16;;;9.65
47484;BMP280;54076;50.322;18.650;2022-11-11T20:44:38;100699.06;;;9.69
47484;BMP280;54076;50.322;18.650;2022-11-11T20:49:39;100699.84;;;9.60
47484;BMP280;54076;50.322;18.650;2022-11-11T20:54:40;100700.45;;;9.57
47484;BMP280;54076;50.322;18.650;2022-11-11T20:59:41;100696.48;;;9.57
47484;BMP280;54076;50.322;18.650;2022-11-11T21:04:42;100699.08;;;9.42
47484;BMP280;54076;50.322;18.650;2022-11-11T21:09:44;100702.81;;;9.38
47484;BMP280;54076;50.322;18.650;2022-11-11T21:14:45;100694.80;;;9.35
47484;BMP280;54076;50.322;18.650;2022-11-11T21:19:46;100679.64;;;9.32
47484;BMP280;54076;50.322;18.650;2022-11-11T21:24:48;100663.23;;;9.39
47484;BMP280;54076;50.322;18.650;2022-11-11T21:29:49;100657.94;;;9.35
47484;BMP280;54076;50.322;18.650;2022-11-11T21:34:50;100661.42;;;9.18
47484;BMP280;54076;50.322;18.650;2022-11-11T21:39:51;100667.20;;;9.23
47484;BMP280;54076;50.322;18.650;2022-11-11T21:44:52;100655.49;;;9.14
47484;BMP280;54076;50.322;18.650;2022-11-11T21:49:53;100644.88;;;9.19
47484;BMP280;54076;50.322;18.650;2022-11-11T21:54:53;100644.22;;;9.24
47484;BMP280;54076;50.322;18.650;2022-11-11T21:59:54;100644.46;;;9.28
47484;BMP280;54076;50.322;18.650;2022-11-11T22:04:55;100649.53;;;9.22
47484;BMP280;54076;50.322;18.650;2022-11-11T22:09:56;100661.73;;;9.18
47484;BMP280;54076;50.322;18.650;2022-11-11T22:14:57;100666.77;;;9.25
47484;BMP280;54076;50.322;18.650;2022-11-11T22:19:58;100665.58;;;9.12
47484;BMP280;54076;50.322;18.650;2022-11-11T22:24:59;100667.61;;;9.09
47484;BMP280;54076;50.322;18.650;2022-11-11T22:30:00;100674.66;;;9.07
47484;BMP280;54076;50.322;18.650;2022-11-11T22:35:01;100674.64;;;9.19
47484;BMP280;54076;50.322;18.650;2022-11-11T22:40:03;100678.02;;;9.02
47484;BMP280;54076;50.322;18.650;2022-11-11T22:45:05;100676.14;;;9.11
47484;BMP280;54076;50.322;18.650;2022-11-11T22:50:06;100677.23;;;9.04
47484;BMP280;54076;50.322;18.650;2022-11-11T22:55:08;100669.88;;;9.09
47484;BMP280;54076;50.322;18.650;2022-11-11T23:00:10;100662.94;;;9.05
47484;BMP280;54076;50.322;18.650;2022-11-11T23:05:12;100668.19;;;9.05
47484;BMP280;54076;50.322;18.650;2022-11-11T23:10:15;100658.19;;;9.00
47484;BMP280;54076;50.322;18.650;2022-11-11T23:15:16;100660.33;;;8.88
47484;BMP280;54076;50.322;18.650;2022-11-11T23:20:17;100657.11;;;8.87
47484;BMP280;54076;50.322;18.650;2022-11-11T23:25:18;100653.56;;;8.72
47484;BMP280;54076;50.322;18.650;2022-11-11T23:30:19;100654.81;;;8.70
47484;BMP280;54076;50.322;18.650;2022-11-11T23:35:20;100658.84;;;8.72
47484;BMP280;54076;50.322;18.650;2022-11-11T23:40:21;100655.86;;;8.62
47484;BMP280;54076;50.322;18.650;2022-11-11T23:45:22;100650.47;;;8.61
47484;BMP280;54076;50.322;18.650;2022-11-11T23:50:24;100646.41;;;8.52
47484;BMP280;54076;50.322;18.650;2022-11-11T23:55:25;100645.85;;;8.56
